Terminal Aerodrome Forecast
Issued by NWS

Home | Current Version | Previous Version | Text Only | Print | Product List | Glossary On
Versions: 1 2 3 4 5 6 7 8 9 10 11 12
172
FTUS45 KABQ 190520
TAFFMN
TAF
KFMN 190520Z 1906/2006 08006KT P6SM OVC200
     FM191800 12006KT P6SM BKN200
     FM200200 07007KT P6SM BKN120=

USA.gov is the U.S. government's official web portal to all federal, state and local government web resources and services.